Decoded Metar for K2W6 (CAPT DUKE RGNL in MD, USA) (IATA:2W6) | Meteo·Mobile Aviation Weather
aviador You're here:

K2W6 Decoded Metar

CAPT DUKE RGNL in MD, USA
Report Time2019-07-20 13:23:00
UTC Time2019-07-20 13:43:58
Flight Rules vfr VFR
Wind260° at 04 kt
Visibility9999 m
Phenomena:N/A
Clouds:N/A
Expected CloudBase > 2,800 ft AGL from Temp-Dew spread
CeilingNone
Temp31°C (ISA +16)
Dew Point24°C (66% RH)
Heat Index36.4°C
QNH1015 hPa
Density Alt2,329 ft
Elevation144 ft
Report Wrong Elevation
Raw Report
K2W6 201323Z AUTO 26004KT 10SM CLR 31/24 A2996 RMK AO1=

Extra information for K2W6:More info

Metar Taf Metar & Taf Last 4 Metars F.Rules Stats Wind Profile Meteogram Temp Stats Airport Information Weather charts Add Link Nearby VenuesMetar ALERT Operation Metar Decoded Social comments

AIRNAV info for K2W6